createdAt,value
2018-12-28T00:00:29.808Z,23.05
2018-12-28T00:02:59.953Z,22.95
2018-12-28T00:05:30.088Z,25.35
2018-12-28T00:08:00.271Z,20.27
2018-12-28T00:10:30.445Z,22.95
2018-12-28T00:13:00.592Z,25.60
2018-12-28T00:15:30.748Z,24.47
2018-12-28T00:18:00.892Z,23.27
2018-12-28T00:20:31.088Z,23.02
2018-12-28T00:23:01.223Z,20.97
2018-12-28T00:25:31.390Z,24.90
2018-12-28T00:28:01.528Z,26.45
2018-12-28T00:30:31.739Z,26.75
2018-12-28T00:33:01.887Z,22.67
2018-12-28T00:35:32.103Z,25.85
2018-12-28T00:38:02.277Z,22.82
2018-12-28T00:40:32.436Z,22.05
2018-12-28T00:43:02.583Z,25.02
2018-12-28T00:45:32.773Z,25.48
2018-12-28T00:48:02.924Z,23.20
2018-12-28T00:50:33.184Z,27.25
2018-12-28T00:53:03.400Z,23.47
2018-12-28T00:55:33.608Z,30.12
2018-12-28T00:58:03.783Z,23.80
2018-12-28T01:00:33.938Z,23.50
2018-12-28T01:03:04.292Z,21.80
2018-12-28T01:05:34.479Z,27.35
2018-12-28T01:08:04.671Z,24.63
2018-12-28T01:10:34.835Z,25.92
2018-12-28T01:13:05.065Z,28.67
2018-12-28T01:15:35.219Z,26.15
2018-12-28T01:18:05.482Z,24.90
2018-12-28T01:20:35.660Z,27.30
2018-12-28T01:23:05.841Z,21.10
2018-12-28T01:25:36.035Z,26.33
2018-12-28T01:28:06.204Z,27.87
2018-12-28T01:30:36.380Z,26.40
2018-12-28T01:33:06.537Z,23.07
2018-12-28T01:35:36.725Z,26.52
2018-12-28T01:38:06.903Z,26.40
2018-12-28T01:40:37.067Z,22.80
2018-12-28T01:43:07.242Z,25.00
2018-12-28T01:45:37.398Z,21.48
2018-12-28T01:48:07.602Z,19.73
2018-12-28T01:50:37.758Z,20.23
2018-12-28T01:53:07.917Z,19.98
2018-12-28T01:55:38.099Z,20.15
2018-12-28T01:58:08.252Z,21.90
2018-12-28T02:00:38.436Z,21.90
2018-12-28T02:03:08.604Z,22.30
2018-12-28T02:05:38.757Z,22.20
2018-12-28T02:08:08.981Z,20.55
2018-12-28T02:10:39.154Z,22.13
2018-12-28T02:13:09.305Z,19.25
2018-12-28T02:15:39.478Z,23.27
2018-12-28T02:18:09.630Z,22.35
2018-12-28T02:20:39.802Z,22.07
2018-12-28T02:23:09.955Z,26.35
2018-12-28T02:25:40.111Z,21.50
2018-12-28T02:28:10.349Z,27.67
2018-12-28T02:30:47.538Z,25.25
2018-12-28T02:33:19.493Z,25.43
2018-12-28T02:35:49.616Z,25.20
2018-12-28T02:38:19.840Z,24.32
2018-12-28T02:40:50.009Z,24.35
2018-12-28T02:43:20.244Z,24.18
2018-12-28T02:45:50.470Z,24.45
2018-12-28T02:48:20.663Z,23.10
2018-12-28T02:50:50.769Z,29.40
2018-12-28T02:53:20.976Z,26.35
2018-12-28T02:55:51.118Z,23.22
2018-12-28T02:58:21.309Z,24.10
2018-12-28T03:00:51.604Z,24.90
2018-12-28T03:03:21.785Z,24.37
2018-12-28T03:05:51.973Z,25.48
2018-12-28T03:08:22.183Z,25.88
2018-12-28T03:10:52.376Z,24.27
2018-12-28T03:13:22.544Z,21.48
2018-12-28T03:15:52.720Z,23.38
2018-12-28T03:18:22.924Z,25.60
2018-12-28T03:20:53.065Z,23.47
2018-12-28T03:23:23.216Z,26.15
2018-12-28T03:25:53.418Z,23.75
2018-12-28T03:28:23.586Z,24.27
2018-12-28T03:30:53.749Z,22.50
2018-12-28T03:33:23.911Z,26.60
2018-12-28T03:35:54.100Z,24.02
2018-12-28T03:38:24.272Z,22.80
2018-12-28T03:40:54.447Z,24.20
2018-12-28T03:43:24.620Z,22.93
2018-12-28T03:45:54.774Z,23.77
2018-12-28T03:48:24.954Z,23.50
2018-12-28T03:50:55.196Z,24.80
2018-12-28T03:53:25.398Z,23.57
2018-12-28T03:55:55.617Z,21.27
2018-12-28T03:58:25.797Z,23.35
2018-12-28T04:00:55.996Z,14.10
2018-12-28T04:03:26.178Z,22.35
2018-12-28T04:05:56.413Z,18.02
2018-12-28T04:08:26.626Z,23.85
2018-12-28T04:10:56.842Z,21.25
2018-12-28T04:13:27.079Z,20.37
2018-12-28T04:15:57.284Z,23.45
2018-12-28T04:18:27.445Z,17.87
2018-12-28T04:20:57.658Z,19.70
2018-12-28T04:23:27.835Z,19.85
2018-12-28T04:25:57.993Z,18.65
2018-12-28T04:28:28.225Z,19.12
2018-12-28T04:30:58.428Z,17.70
2018-12-28T04:33:28.619Z,16.87
2018-12-28T04:35:58.806Z,18.87
2018-12-28T04:38:28.978Z,18.42
2018-12-28T04:40:59.150Z,17.25
2018-12-28T04:43:29.332Z,23.22
2018-12-28T04:45:59.492Z,16.15
2018-12-28T04:48:29.674Z,18.65
2018-12-28T04:51:01.605Z,17.62
2018-12-28T04:53:32.497Z,19.50
2018-12-28T04:56:03.241Z,17.60
2018-12-28T04:58:35.144Z,19.85
2018-12-28T05:01:21.901Z,22.10
2018-12-28T05:04:08.202Z,17.77
2018-12-28T05:07:03.543Z,17.50
2018-12-28T05:09:56.073Z,21.55
2018-12-28T05:12:45.925Z,21.73
2018-12-28T05:15:30.332Z,20.08
2018-12-28T05:18:25.928Z,17.70
2018-12-28T05:21:15.339Z,19.75
2018-12-28T05:24:01.828Z,15.60
2018-12-28T05:26:36.679Z,18.45
2018-12-28T05:29:29.280Z,15.70
2018-12-28T05:32:03.681Z,18.60
2018-12-28T05:34:34.005Z,16.37
2018-12-28T05:37:04.191Z,17.70
2018-12-28T05:39:34.334Z,18.73
2018-12-28T05:42:04.533Z,17.48
2018-12-28T05:44:34.764Z,14.65
2018-12-28T05:47:04.923Z,19.73
2018-12-28T05:49:35.137Z,15.50
2018-12-28T05:52:05.307Z,15.65
2018-12-28T05:54:35.472Z,17.40
2018-12-28T05:57:05.696Z,19.10
2018-12-28T05:59:35.852Z,16.62
2018-12-28T06:02:05.997Z,16.70
2018-12-28T06:04:36.237Z,16.25
2018-12-28T06:07:06.443Z,15.50
2018-12-28T06:09:36.610Z,18.32
2018-12-28T06:12:06.843Z,14.87
2018-12-28T06:14:37.034Z,15.53
2018-12-28T06:17:07.192Z,14.95
2018-12-28T06:19:37.373Z,16.30
2018-12-28T06:22:07.537Z,15.00
2018-12-28T06:24:37.673Z,14.95
2018-12-28T06:27:07.858Z,14.68
2018-12-28T06:29:38.020Z,15.58
2018-12-28T06:32:08.255Z,15.93
2018-12-28T06:34:38.414Z,15.13
2018-12-28T06:37:08.548Z,17.77
2018-12-28T06:39:38.722Z,17.82
2018-12-28T06:42:08.884Z,17.02
2018-12-28T06:44:39.025Z,16.82
2018-12-28T06:47:09.258Z,15.75
2018-12-28T06:49:39.428Z,15.80
2018-12-28T06:52:09.719Z,15.55
2018-12-28T06:55:06.540Z,18.40
2018-12-28T06:57:55.954Z,14.85
2018-12-28T07:00:58.570Z,15.00
2018-12-28T07:04:19.774Z,14.47
2018-12-28T07:07:06.127Z,15.83
2018-12-28T07:10:16.796Z,15.65
2018-12-28T07:13:00.334Z,11.45
2018-12-28T07:16:24.357Z,16.42
2018-12-28T07:19:30.558Z,12.15
2018-12-28T07:22:40.873Z,15.35
2018-12-28T07:25:34.870Z,15.43
2018-12-28T07:28:34.477Z,13.45
2018-12-28T07:31:18.027Z,17.45
2018-12-28T07:33:58.379Z,14.60
2018-12-28T07:36:51.287Z,14.83
2018-12-28T07:39:59.289Z,16.00
2018-12-28T07:42:36.849Z,13.40
2018-12-28T07:45:40.070Z,13.90
2018-12-28T07:48:30.984Z,13.03
2018-12-28T07:51:14.477Z,14.28
2018-12-28T07:53:55.047Z,15.32
2018-12-28T07:56:53.578Z,13.75
2018-12-28T07:59:42.815Z,14.43
2018-12-28T08:02:51.825Z,14.53
2018-12-28T08:06:01.041Z,15.15
2018-12-28T08:09:01.255Z,14.15
2018-12-28T08:11:41.541Z,12.82
2018-12-28T08:14:27.881Z,13.15
2018-12-28T08:17:23.471Z,14.55
2018-12-28T08:20:40.502Z,15.65
2018-12-28T08:23:51.418Z,14.80
2018-12-28T08:26:32.128Z,15.15
2018-12-28T08:29:29.139Z,13.20
2018-12-28T08:32:32.098Z,16.80
2018-12-28T08:35:27.611Z,15.23
2018-12-28T08:38:26.195Z,15.30
2018-12-28T08:41:09.633Z,12.85
2018-12-28T08:43:45.799Z,14.83
2018-12-28T08:46:32.297Z,15.63
2018-12-28T08:49:15.730Z,16.40
2018-12-28T08:52:06.645Z,14.43
2018-12-28T08:54:50.342Z,15.55
2018-12-28T08:57:48.768Z,13.72
2018-12-28T09:00:48.734Z,15.28
2018-12-28T09:03:35.122Z,16.20
2018-12-28T09:06:18.901Z,15.55
2018-12-28T09:09:14.310Z,14.68
2018-12-28T09:12:12.424Z,17.85
2018-12-28T09:15:12.587Z,16.05
2018-12-28T09:18:16.871Z,17.80
2018-12-28T09:21:23.807Z,17.90
2018-12-28T09:23:56.746Z,14.65
2018-12-28T09:26:31.676Z,16.85
2018-12-28T09:29:12.529Z,16.25
2018-12-28T09:32:23.254Z,14.35
2018-12-28T09:35:09.298Z,17.10
2018-12-28T09:37:59.079Z,15.60
2018-12-28T09:40:39.029Z,16.52
2018-12-28T09:43:28.603Z,16.05
2018-12-28T09:46:28.570Z,17.50
2018-12-28T09:49:05.953Z,15.70
2018-12-28T09:51:57.057Z,15.90
2018-12-28T09:54:30.794Z,16.32
2018-12-28T09:57:36.940Z,14.65
2018-12-28T10:00:26.084Z,16.30
2018-12-28T10:03:12.526Z,18.30
2018-12-28T10:05:47.384Z,14.58
2018-12-28T10:08:27.775Z,15.85
2018-12-28T10:11:08.412Z,14.83
2018-12-28T10:14:04.030Z,16.62
2018-12-28T10:16:36.891Z,15.70
2018-12-28T10:19:07.068Z,17.60
2018-12-28T10:21:37.227Z,17.32
2018-12-28T10:24:08.332Z,17.95
2018-12-28T10:26:38.486Z,16.95
2018-12-28T10:29:08.639Z,17.65
2018-12-28T10:31:38.859Z,16.62
2018-12-28T10:34:09.040Z,14.38
2018-12-28T10:36:39.165Z,17.65
2018-12-28T10:39:09.366Z,15.85
2018-12-28T10:41:39.475Z,15.65
2018-12-28T10:44:09.693Z,17.62
2018-12-28T10:46:39.926Z,18.10
2018-12-28T10:49:10.096Z,15.78
2018-12-28T10:51:40.285Z,16.48
2018-12-28T10:54:10.446Z,15.60
2018-12-28T10:56:40.580Z,15.23
2018-12-28T10:59:10.789Z,17.62
2018-12-28T11:01:41.029Z,16.82
2018-12-28T11:04:11.177Z,13.03
2018-12-28T11:06:41.420Z,15.60
2018-12-28T11:09:12.557Z,14.63
2018-12-28T11:11:46.112Z,14.98
2018-12-28T11:14:14.583Z,19.45
2018-12-28T11:16:44.798Z,15.78
2018-12-28T11:19:15.036Z,15.68
2018-12-28T11:21:45.256Z,16.02
2018-12-28T11:24:15.457Z,15.93
2018-12-28T11:26:45.622Z,16.23
2018-12-28T11:29:15.743Z,16.73
2018-12-28T11:31:45.923Z,17.07
2018-12-28T11:34:16.144Z,17.75
2018-12-28T11:36:46.253Z,19.70
2018-12-28T11:39:16.422Z,18.12
2018-12-28T11:41:52.891Z,18.60
2018-12-28T11:44:18.521Z,15.10
2018-12-28T11:46:48.680Z,16.23
2018-12-28T11:49:18.835Z,19.20
2018-12-28T11:51:49.046Z,18.17
2018-12-28T11:54:19.239Z,17.10
2018-12-28T11:56:49.388Z,16.00
2018-12-28T11:59:19.545Z,18.00
2018-12-28T12:01:49.697Z,18.80
2018-12-28T12:04:20.933Z,12.85
2018-12-28T12:06:51.076Z,18.32
2018-12-28T12:09:21.241Z,17.42
2018-12-28T12:11:51.426Z,19.65
2018-12-28T12:14:21.586Z,18.52
2018-12-28T12:16:51.764Z,17.80
2018-12-28T12:19:21.930Z,20.12
2018-12-28T12:21:52.125Z,17.00
2018-12-28T12:24:22.304Z,17.00
2018-12-28T12:26:52.595Z,19.12
2018-12-28T12:29:22.786Z,14.07
2018-12-28T12:31:55.886Z,19.00
2018-12-28T12:34:26.044Z,20.02
2018-12-28T12:36:56.257Z,20.02
2018-12-28T12:39:26.455Z,18.10
2018-12-28T12:41:56.666Z,15.78
2018-12-28T12:44:26.958Z,16.93
2018-12-28T12:46:57.185Z,17.80
2018-12-28T12:49:27.471Z,18.20
2018-12-28T12:51:57.582Z,15.95
2018-12-28T12:54:27.782Z,19.32
2018-12-28T12:56:57.947Z,16.87
2018-12-28T12:59:28.108Z,19.07
2018-12-28T13:01:58.415Z,17.98
2018-12-28T13:04:28.552Z,15.55
2018-12-28T13:06:58.734Z,19.00
2018-12-28T13:12:21.026Z,16.55
2018-12-28T13:15:03.085Z,17.05
2018-12-28T13:17:52.620Z,18.07
2018-12-28T13:20:34.818Z,17.85
2018-12-28T13:29:28.431Z,14.18
2018-12-28T13:32:10.527Z,15.43
2018-12-28T13:35:00.179Z,15.13
2018-12-28T13:37:42.973Z,19.05
2018-12-28T13:40:32.493Z,17.20
2018-12-28T13:43:15.337Z,18.17
2018-12-28T13:46:04.856Z,12.80
2018-12-28T13:48:47.453Z,14.28
2018-12-28T13:51:36.952Z,14.90
2018-12-28T13:54:19.235Z,16.42
2018-12-28T13:57:08.757Z,16.37
2018-12-28T13:59:51.032Z,17.95
2018-12-28T14:02:40.585Z,16.70
2018-12-28T14:05:23.169Z,14.95
2018-12-28T14:08:12.656Z,14.38
2018-12-28T14:10:55.400Z,15.80
2018-12-28T14:13:44.968Z,16.67
2018-12-28T14:16:26.923Z,17.10
2018-12-28T14:19:16.439Z,17.42
2018-12-28T14:21:58.521Z,16.00
2018-12-28T14:24:48.010Z,15.43
2018-12-28T14:27:31.028Z,13.40
2018-12-28T14:30:20.594Z,17.50
2018-12-28T14:33:03.504Z,16.95
2018-12-28T14:35:53.012Z,15.83
2018-12-28T14:38:33.529Z,16.05
2018-12-28T14:41:23.024Z,16.17
2018-12-28T14:44:05.763Z,16.37
2018-12-28T14:46:55.298Z,18.25
2018-12-28T14:49:38.083Z,15.85
2018-12-28T14:52:27.607Z,14.58
2018-12-28T14:55:10.335Z,13.18
2018-12-28T14:57:59.846Z,16.30
2018-12-28T15:01:01.619Z,16.00
2018-12-28T15:06:52.647Z,16.85
2018-12-28T15:09:42.131Z,17.35
2018-12-28T15:12:12.497Z,14.13
2018-12-28T15:14:42.712Z,15.68
2018-12-28T15:17:14.473Z,16.25
2018-12-28T15:19:56.381Z,16.12
2018-12-28T15:22:45.954Z,17.62
2018-12-28T15:25:28.794Z,17.52
2018-12-28T15:28:18.315Z,18.57
2018-12-28T15:30:58.831Z,18.07
2018-12-28T15:33:48.366Z,16.20
2018-12-28T15:36:30.626Z,15.78
2018-12-28T15:39:20.164Z,18.67
2018-12-28T15:42:02.144Z,16.70
2018-12-28T15:44:51.662Z,17.25
2018-12-28T15:47:33.893Z,18.95
2018-12-28T15:50:23.389Z,13.65
2018-12-28T15:53:05.414Z,17.17
2018-12-28T15:55:55.002Z,17.48
2018-12-28T15:58:35.445Z,16.42
2018-12-28T16:01:24.940Z,17.05
2018-12-28T16:04:07.279Z,15.53
2018-12-28T16:09:57.907Z,17.98
2018-12-28T16:12:40.658Z,16.87
2018-12-28T16:15:30.150Z,16.93
2018-12-28T16:18:12.677Z,20.65
2018-12-28T16:21:02.240Z,19.65
2018-12-28T16:23:51.352Z,16.52
2018-12-28T16:26:40.942Z,21.82
2018-12-28T16:29:23.363Z,18.90
2018-12-28T16:32:05.580Z,18.40
2018-12-28T16:34:47.701Z,17.27
2018-12-28T16:37:37.235Z,18.92
2018-12-28T16:40:19.890Z,16.23
2018-12-28T16:43:09.368Z,18.30
2018-12-28T16:45:51.633Z,20.68
2018-12-28T16:48:41.129Z,18.60
2018-12-28T16:51:23.543Z,18.55
2018-12-28T16:54:13.061Z,17.55
2018-12-28T16:56:53.476Z,19.00
2018-12-28T16:59:43.024Z,19.10
2018-12-28T17:02:25.482Z,18.27
2018-12-28T17:05:07.756Z,15.72
2018-12-28T17:07:57.258Z,17.32
2018-12-28T17:10:37.760Z,17.85
2018-12-28T17:13:27.285Z,16.45
2018-12-28T17:16:07.772Z,18.60
2018-12-28T17:18:57.345Z,18.57
2018-12-28T17:21:39.433Z,17.42
2018-12-28T17:27:30.565Z,17.57
2018-12-28T17:30:12.507Z,17.00
2018-12-28T17:33:02.030Z,21.25
2018-12-28T17:35:44.711Z,19.32
2018-12-28T17:38:34.250Z,21.60
2018-12-28T17:41:17.048Z,18.60
2018-12-28T17:44:06.517Z,20.43
2018-12-28T17:46:49.414Z,21.15
2018-12-28T17:49:39.089Z,15.95
2018-12-28T17:52:21.507Z,17.40
2018-12-28T17:55:10.995Z,21.70
2018-12-28T17:57:53.027Z,18.00
2018-12-28T18:00:42.551Z,20.25
2018-12-28T18:03:31.551Z,18.23
2018-12-28T18:06:13.657Z,18.25
2018-12-28T18:12:04.162Z,15.85
2018-12-28T18:14:46.223Z,17.55
2018-12-28T18:17:35.716Z,18.67
2018-12-28T18:20:17.712Z,19.67
2018-12-28T18:23:07.180Z,17.48
2018-12-28T18:25:49.240Z,18.27
2018-12-28T18:28:38.702Z,19.98
2018-12-28T18:31:20.758Z,18.32
2018-12-28T18:37:12.455Z,14.95
2018-12-28T18:39:54.930Z,19.60
2018-12-28T18:42:44.419Z,19.57
2018-12-28T18:45:27.075Z,18.87
2018-12-28T18:48:16.585Z,16.25
2018-12-28T18:50:58.592Z,18.90
2018-12-28T18:53:41.246Z,21.15
2018-12-28T18:56:30.872Z,18.77
2018-12-28T18:59:13.187Z,19.80
2018-12-28T19:02:02.764Z,17.73
2018-12-28T19:04:45.365Z,29.90
2018-12-28T19:07:34.905Z,23.52
2018-12-28T19:10:23.635Z,21.45
2018-12-28T19:13:13.170Z,21.12
2018-12-28T19:15:55.449Z,19.12
2018-12-28T19:18:44.949Z,24.37
2018-12-28T19:21:27.588Z,19.37
2018-12-28T19:24:17.113Z,23.80
2018-12-28T19:26:59.222Z,24.05
2018-12-28T19:29:48.792Z,18.92
2018-12-28T19:32:31.478Z,22.35
2018-12-28T19:35:21.089Z,20.88
2018-12-28T19:38:03.865Z,20.77
2018-12-28T19:43:54.053Z,28.67
2018-12-28T19:46:36.835Z,19.25
2018-12-28T19:49:26.380Z,17.15
2018-12-28T19:52:08.313Z,22.17
2018-12-28T19:54:57.924Z,17.82
2018-12-28T19:57:40.505Z,18.52
2018-12-28T20:00:30.034Z,20.17
2018-12-28T20:03:12.081Z,20.77
2018-12-28T20:06:01.542Z,20.30
2018-12-28T20:08:44.062Z,23.62
2018-12-28T20:11:33.703Z,21.10
2018-12-28T20:14:14.467Z,18.15
2018-12-28T20:17:03.972Z,19.02
2018-12-28T20:19:44.569Z,20.72
2018-12-28T20:25:36.028Z,17.48
2018-12-28T20:28:25.588Z,18.75
2018-12-28T20:31:07.705Z,19.65
2018-12-28T20:33:57.299Z,18.05
2018-12-28T20:36:39.622Z,19.35
2018-12-28T20:39:29.215Z,17.12
2018-12-28T20:42:12.727Z,19.57
2018-12-28T20:48:04.177Z,17.05
2018-12-28T20:50:46.214Z,16.95
2018-12-28T20:53:35.723Z,18.95
2018-12-28T20:56:18.150Z,20.37
2018-12-28T20:59:07.764Z,17.85
2018-12-28T21:01:50.577Z,17.75
2018-12-28T21:04:40.150Z,17.27
2018-12-28T21:07:21.621Z,15.83
2018-12-28T21:10:11.121Z,17.60
2018-12-28T21:12:53.846Z,18.77
2018-12-28T21:15:43.329Z,17.17
2018-12-28T21:18:24.012Z,18.85
2018-12-28T21:21:13.563Z,18.82
2018-12-28T21:23:56.258Z,18.07
2018-12-28T21:29:47.425Z,17.90
2018-12-28T21:32:36.968Z,16.82
2018-12-28T21:35:19.058Z,19.75
2018-12-28T21:38:01.851Z,19.67
2018-12-28T21:40:44.041Z,18.60
2018-12-28T21:43:33.683Z,16.05
2018-12-28T21:46:15.849Z,19.02
2018-12-28T21:49:05.385Z,17.70
2018-12-28T21:51:47.599Z,16.80
2018-12-28T21:54:37.122Z,16.02
2018-12-28T21:57:19.288Z,15.88
2018-12-28T22:03:09.086Z,17.67
2018-12-28T22:05:51.756Z,16.35
2018-12-28T22:08:41.251Z,14.35
2018-12-28T22:11:24.075Z,15.65
2018-12-28T22:14:13.611Z,15.53
2018-12-28T22:16:55.969Z,17.92
2018-12-28T22:19:45.669Z,17.48
2018-12-28T22:22:26.234Z,13.75
2018-12-28T22:28:18.117Z,16.40
2018-12-28T22:31:00.161Z,16.40
2018-12-28T22:33:49.700Z,18.32
2018-12-28T22:36:32.059Z,16.80
2018-12-28T22:39:14.659Z,17.07
2018-12-28T22:42:04.238Z,18.27
2018-12-28T22:44:46.695Z,15.60
2018-12-28T22:47:29.058Z,17.17
2018-12-28T22:50:18.641Z,17.85
2018-12-28T22:53:01.018Z,17.10
2018-12-28T22:55:50.487Z,17.85
2018-12-28T22:58:31.076Z,16.57
2018-12-28T23:01:20.587Z,17.82
2018-12-28T23:04:02.555Z,14.33
2018-12-28T23:06:52.048Z,16.35
2018-12-28T23:09:34.837Z,17.10
2018-12-28T23:12:24.538Z,17.50
2018-12-28T23:15:07.128Z,17.73
2018-12-28T23:17:56.644Z,20.15
2018-12-28T23:20:39.413Z,19.62
2018-12-28T23:23:29.093Z,19.12
2018-12-28T23:26:11.836Z,22.52
2018-12-28T23:28:54.600Z,17.25
2018-12-28T23:31:37.295Z,18.35
2018-12-28T23:34:26.803Z,19.45
2018-12-28T23:37:07.254Z,16.70
2018-12-28T23:39:57.007Z,17.10
2018-12-28T23:42:39.780Z,19.67
2018-12-28T23:45:29.381Z,21.85
2018-12-28T23:48:11.882Z,19.90
2018-12-28T23:51:01.383Z,20.30
2018-12-28T23:53:43.421Z,14.90
2018-12-28T23:59:34.215Z,15.38
